Orbital elements of FENGYUN 1C DEB
| Launched | 9 May 1999 |
| Flight ended | – |
| Launch site | Taiyuan Space Center, PRC |
| Owner | People's Republic of China |
| NORAD ID | 29750 |
| Date fetched |
Epoch osculation |
Inc. [°] |
Ecc. | RA asc node [hr] |
Arg Peri. [°] |
Mean anom [°] |
Mean motion [rev/day] |
Abs. mag |
| Date fetched |
Epoch osculation |
Inc. [°] |
Ecc. | RA asc node [hr] |
Arg Peri. [°] |
Mean anom [°] |
Mean motion [rev/day] |
Abs. mag |
| 2026 May 05 17:57 | 2026 May 05 01:31:29 | 98.7359 | 0.00348 | 10.3427 | 254.4870 | 131.6576 | 14.09780 | – |
| 2026 May 04 17:57 | 2026 Apr 30 14:40:50 | 98.7365 | 0.00347 | 10.0545 | 267.5347 | 131.6576 | 14.09780 | – |
| 2026 May 03 17:57 | 2026 Apr 30 14:40:50 | 98.7365 | 0.00347 | 10.0545 | 267.5347 | 131.6576 | 14.09780 | – |
| 2026 May 02 17:57 | 2026 Apr 30 14:40:50 | 98.7365 | 0.00347 | 10.0545 | 267.5347 | 131.6576 | 14.09780 | – |
| 2026 May 01 17:56 | 2026 Apr 30 14:40:50 | 98.7365 | 0.00347 | 10.0545 | 267.5347 | 131.6576 | 14.09780 | – |
| 2026 Apr 30 17:56 | 2026 Apr 30 14:40:50 | 98.7365 | 0.00347 | 10.0545 | 267.5347 | 131.6576 | 14.09780 | – |
| 2026 Apr 29 17:57 | 2026 Apr 24 01:30:24 | 98.7374 | 0.00347 | 9.6306 | 286.7631 | 131.6576 | 14.09780 | – |
| 2026 Apr 28 17:56 | 2026 Apr 24 01:30:24 | 98.7374 | 0.00347 | 9.6306 | 286.7631 | 131.6576 | 14.09780 | – |
| 2026 Apr 27 17:58 | 2026 Apr 24 01:30:24 | 98.7374 | 0.00347 | 9.6306 | 286.7631 | 131.6576 | 14.09780 | – |
| 2026 Apr 26 17:58 | 2026 Apr 24 01:30:24 | 98.7374 | 0.00347 | 9.6306 | 286.7631 | 131.6576 | 14.09780 | – |
| 2026 Apr 25 17:58 | 2026 Apr 24 01:30:24 | 98.7374 | 0.00347 | 9.6306 | 286.7631 | 131.6576 | 14.09780 | – |
| 2026 Apr 24 17:59 | 2026 Apr 24 01:30:24 | 98.7374 | 0.00347 | 9.6306 | 286.7631 | 131.6576 | 14.09780 | – |
| 2026 Apr 23 17:57 | 2026 Apr 19 07:32:44 | 98.7382 | 0.00347 | 9.3231 | 300.6840 | 131.6576 | 14.09780 | – |
| 2026 Apr 22 17:57 | 2026 Apr 19 07:32:44 | 98.7382 | 0.00347 | 9.3231 | 300.6840 | 131.6576 | 14.09780 | – |
| 2026 Apr 21 17:57 | 2026 Apr 19 07:32:44 | 98.7382 | 0.00347 | 9.3231 | 300.6840 | 131.6576 | 14.09780 | – |
| 2026 Apr 20 17:57 | 2026 Apr 19 07:32:44 | 98.7382 | 0.00347 | 9.3231 | 300.6840 | 131.6576 | 14.09780 | – |
| 2026 Apr 19 17:58 | 2026 Apr 19 07:32:44 | 98.7382 | 0.00347 | 9.3231 | 300.6840 | 131.6576 | 14.09780 | – |
| 2026 Apr 18 17:56 | 2026 Apr 13 01:28:58 | 98.7393 | 0.00350 | 8.9183 | 318.9207 | 131.6576 | 14.09780 | – |
| 2026 Apr 16 17:57 | 2026 Apr 13 01:28:58 | 98.7393 | 0.00350 | 8.9183 | 318.9207 | 131.6576 | 14.09780 | – |
| 2026 Apr 14 17:57 | 2026 Apr 13 01:28:58 | 98.7393 | 0.00350 | 8.9183 | 318.9207 | 131.6576 | 14.09780 | – |
| 2026 Apr 13 17:57 | 2026 Apr 13 01:28:58 | 98.7393 | 0.00350 | 8.9183 | 318.9207 | 131.6576 | 14.09780 | – |
| 2026 Apr 12 17:57 | 2026 Apr 08 14:38:28 | 98.7398 | 0.00352 | 8.6300 | 331.8928 | 131.6576 | 14.09780 | – |
| 2026 Apr 11 17:57 | 2026 Apr 08 14:38:28 | 98.7398 | 0.00352 | 8.6300 | 331.8928 | 131.6576 | 14.09780 | – |
| 2026 Apr 10 17:58 | 2026 Apr 08 14:38:28 | 98.7398 | 0.00352 | 8.6300 | 331.8928 | 131.6576 | 14.09780 | – |
| 2026 Apr 09 18:01 | 2026 Apr 08 14:38:28 | 98.7398 | 0.00352 | 8.6300 | 331.8928 | 131.6576 | 14.09780 | – |
| 2026 Apr 08 17:57 | 2026 Apr 08 14:38:28 | 98.7398 | 0.00352 | 8.6300 | 331.8928 | 131.6576 | 14.09780 | – |